Погода Китмансхупна неделю

Карас, Намибия

13 - 19 июня
  • 13июня
    Сегодня
    +12°
    +27°
    Ясно и безоблачно
    ВремяПогодаТемператураВлажностьДавлениеВетер, м/сВероятность осадков
    02:00Ясно и безоблачно+15°C39 %685 мм3.5 м/с2 %
    05:00Ясно и безоблачно+14°C42 %684 мм3.8 м/с2 %
    08:00Ясно и безоблачно+13°C46 %685 мм3.4 м/с2 %
    11:00Ясно и безоблачно+22°C24 %688 мм4.0 м/с2 %
    14:00Ясно и безоблачно+26°C19 %687 мм4.5 м/с2 %
    17:00Ясно и безоблачно+26°C16 %686 мм3.6 м/с2 %
    20:00Ясно и безоблачно+20°C24 %685 мм2.6 м/с2 %
    23:00Ясно и безоблачно+18°C25 %685 мм4.0 м/с2 %
  • 14июня
    Пятница
    +11°
    +26°
    Ясно и безоблачно
    ВремяПогодаТемператураВлажностьДавлениеВетер, м/сВероятность осадков
    02:00Ясно и безоблачно+16°C30 %685 мм4.9 м/с2 %
    05:00Ясно и безоблачно+14°C31 %685 мм4.8 м/с2 %
    08:00Ясно и безоблачно+13°C32 %685 мм4.3 м/с2 %
    11:00Ясно и безоблачно+21°C16 %688 мм5.8 м/с2 %
    14:00Ясно и безоблачно+25°C12 %687 мм5.5 м/с2 %
    17:00Ясно и безоблачно+25°C10 %686 мм3.7 м/с2 %
    20:00Ясно и безоблачно+19°C14 %685 мм3.6 м/с2 %
    23:00Ясно и безоблачно+17°C15 %685 мм4.0 м/с2 %
  • 15июня
    Суббота
    +11°
    +25°
    Ясно и безоблачно
    ВремяПогодаТемператураВлажностьДавлениеВетер, м/сВероятность осадков
    02:00Ясно и безоблачно+15°C16 %684 мм4.7 м/с2 %
    05:00Ясно и безоблачно+13°C24 %683 мм4.8 м/с2 %
    08:00Ясно и безоблачно+12°C26 %684 мм4.4 м/с2 %
    11:00Ясно и безоблачно+20°C14 %687 мм6.0 м/с2 %
    14:00Ясно и безоблачно+24°C10 %685 мм5.9 м/с2 %
    17:00Ясно и безоблачно+25°C10 %685 мм4.4 м/с2 %
    20:00Ясно и безоблачно+18°C13 %684 мм4.0 м/с2 %
    23:00Ясно и безоблачно+16°C19 %684 мм4.4 м/с2 %
  • 16июня
    Воскресенье
    +12°
    +26°
    Ясно и безоблачно
    ВремяПогодаТемператураВлажностьДавлениеВетер, м/сВероятность осадков
    02:00Практически безоблачно+15°C25 %683 мм5.2 м/с2 %
    05:00Небольшая облачность+13°C28 %682 мм4.9 м/с2 %
    08:00Ясно и безоблачно+12°C32 %683 мм4.9 м/с2 %
    11:00Ясно и безоблачно+20°C23 %685 мм7.3 м/с2 %
    14:00Ясно и безоблачно+25°C15 %684 мм7.1 м/с2 %
    17:00Ясно и безоблачно+26°C13 %683 мм5.7 м/с2 %
    20:00Ясно и безоблачно+19°C18 %682 мм4.4 м/с2 %
    23:00Ясно и безоблачно+17°C21 %681 мм4.6 м/с2 %
  • 17июня
    Понедельник
    +8°
    +26°
    Ясно и безоблачно
    ВремяПогодаТемператураВлажностьДавлениеВетер, м/сВероятность осадков
    02:00Ясно и безоблачно+15°C26 %681 мм5.8 м/с2 %
    05:00Ясно и безоблачно+14°C31 %680 мм5.3 м/с2 %
    08:00Ясно и безоблачно+13°C29 %680 мм5.6 м/с2 %
    11:00Ясно и безоблачно+20°C19 %682 мм7.4 м/с2 %
    14:00Ясно и безоблачно+24°C12 %680 мм6.7 м/с2 %
    17:00Ясно и безоблачно+23°C11 %680 мм5.4 м/с2 %
    20:00Ясно и безоблачно+17°C29 %681 мм3.9 м/с2 %
    23:00Ясно и безоблачно+14°C41 %682 мм3.3 м/с2 %
Мы используем cookies
Соглашаюсь